Strona główna
METAR-TAF:

METAR-TAF

Lotnisko :

Port lotniczy Szarura

Szarura, Arabia Saudyjska

Szerokość geograficzna: 17-28N, Długość geograficzna: 047-07E, wysokość: 720 m

Aktualna obserwacja pogody

Raport powstał 1 godzina i 4 minut temu, godzina 21:00 UTC
Wiatr 10 kt od wschód
Temperatura 17°C
Wilgotność 34%
Ciśnienie 1019 hPa
Widzialność 10 km lub więcej
Brak chmur poniżej 1500 m i brak chmur cumulonimbus

METAR: OESH 292100Z 09010KT CAVOK 17/01 Q1019 NOSIG

czas: 01:04 (22:04 UTC)

Prognoza

Raport powstał 11 godziny i 4 minut temu, godzina 11:00 UTC
Prognoza ważna od 29 godzina 12 UTC do 30 godzina 18 UTC
Wiatr 10 kt od wschodnio-południowy wschód
Widzialność: 7000 m
Stopniowe zmiany
od 29 godzina 18 UTC do 29 godzina 20 UTC
Wiatr 3 kt z kierunków zmiennych

TAF: OESH 291100Z 2912/3018 12010KT 7000 NSC BECMG 2918/2920 VRB03KT

Obserwacja i prognoza pogody dla ponad 4000 lotnisk (raport METAR i TAF).

Dostępne stacje oznaczono żółtymi i czerwonymi punktami na mapie.

Najedź kursorem aby zobaczyć nazwę stacji.

Kliknij aby zobaczyć obserwacje i prognozy pogody.

Aby zmienić mapę: kliknij na zielony przycisk z czarnym krzyżykiem, aby powiększyć; na zielony przycisk z myślnikiem, aby pomniejszyć; na zielone strzałki, aby przejść do map sąsiednich.


METAR-TAF: